Airfield :
LOGIN :

Register | Disclaimer

   EN    FR    IT 

 










Legend :    VFR   Marginal VFR   IFR   Intensive IFR   Very Intensive IFR
Visi :
Ceiling :
>= 8 km
>= 3000ft
5 to 8 km
1000 to 3000 ft
1500m to 5 km
500 to 1000 ft
800 to 1500m
200 to 500 ft
< 800m
< 200 ft
Symbols :   Thunderstorms  Fog  Heavy snow  Heavy precipitations  Wind > 20 kt
SIGMETs :     Misc.  Thunderstorms  Icing  Turbulence  Mountain Waves  Volcanic Ashes







- Airport Elevation : 468 ft
- IATA code : GRO


LEGE - Girona Costa Brava

CURRENT METAR :
  • 250830Z 06003KT 350V130 CAVOK 21/15 Q1017

EXPIRED METARs :
  • 250800Z 00000KT CAVOK 20/13 Q1018
  • 250730Z VRB01KT CAVOK 17/13 Q1018
  • 250700Z VRB01KT CAVOK 16/13 Q1018
  • 250630Z 04004KT 010V090 CAVOK 14/13 Q1018
  • 250600Z 33004KT CAVOK 13/13 Q1017

TAF TAF LEGE
Valid from the 25 at 06:00 until the 26 at 06:00 UTC


250500Z 2506/2606 VRB03KT 9999 FEW050 TX28/2514Z TN13/2506Z
BECMG 2509/2511 07006KT
BECMG 2513/2515 13010KT
BECMG 2518/2520 VRB03KT
BECMG 2602/2604 02006KT
No reported NOTAMs for that airfield.



MET'MAP, your aeronautical weather chart ! - Copyright ORBIFLY December 2007 - Disclaimer

ORBIFLY MET'MAP TEAM :

Programming & Development : Alexandra Zaïnal
Concept & Development : Baudouin d'Aumeries
Co-Development & Prog : Marc-Olivier Méhu
Technical & hardware support : Manuel Goepfert

Contact : metmap@orbifly.com




SOURCES & CREDITS :

   NOAA